Alexandria, IN

7:52 PM EDT on August 25, 2016 (GMT -0400)
Alexandria Fred | | Change Station

Elev 883 ft 40.27 °N, 85.69 °W | Updated 2 minutes ago

Clear
Clear
84.9 °F
Feels Like 91 °F
N
1.7
Wind Variable Wind from West

Today
High -- | Low -- °F
--% Chance of Precip.
Yesterday
High -- | Low -- °F
Precip. -- in
Pressure 30.01 in
Visibility 10.0 miles
Clouds Clear
Heat Index 91 °F
Dew Point 72 °F
Humidity 65%
Rainfall 1.36 in
Snow Depth Not available.
7:03 AM 8:24 PM
Last Quarter, 41% visible
METAR KMIE 252253Z 30008KT 10SM CLR 29/21 A3004 RMK AO2 SLP161 T02940211
Pressure 30.01 in
Visibility 10.0 miles
Clouds Clear
Heat Index 91 °F
Dew Point 72 °F
Humidity 65%
Rainfall 1.36 in
Snow Depth Not available.
7:03 AM 8:24 PM
Last Quarter, 41% visible
METAR KMIE 252253Z 30008KT 10SM CLR 29/21 A3004 RMK AO2 SLP161 T02940211
A tropical disturbance pushing toward the Bahamas, is expected to develop into a tropical depression or storm, and will likely target Florida and the Gulf Coast this weekend into next week.

Right now, the disturbance remains a broad area of low pressure pushing through the Dominican Republic and Haiti, headed toward the southeast Bahamas. Rainfall totals over 3 inches (with locally higher amounts) are expected in HispaƱiola, particularly over elevated terrain.

10-Day Weather Forecast

Almanac

Astronomy

Aug. 25, 2016 Rise Set
Actual Time
Civil Twilight
Nautical Twilight
Astronomical Twilight
Moon
Length of Visible Light
Length of Day
Tomorrow will be .
, % of the Moon is Illuminated

Today's Extremes

State Highs State Lows

Community

WunderPhotos

Upload Photos

1,934,967 photos uploaded!

WunderBlog® & News

Nearby

Air Quality

  Air Quality AQ Index Pollutant
Not available.

Snow Depth

Station Depth Elevation

Earthquake Activity

City Distance Mag. Time & Date
Minimum magnitude displayed is 2.5.

Coastal Water Temperatures

Place Temperature

Stations

Nearby Weather Stations

Station Location Temp. Windchill Dew Point Humidity Wind Precip. Elev Updated Type
                   

Watches & Warnings

There are currently no watches in effect.